sensor_id;sensor_type;location;lat;lon;timestamp;P1;durP1;ratioP1;P2;durP2;ratioP2
46931;SDS011;32670;51.464;11.964;2022-07-29T00:00:36;2.80;;;1.57;;
46931;SDS011;32670;51.464;11.964;2022-07-29T00:03:01;2.20;;;1.13;;
46931;SDS011;32670;51.464;11.964;2022-07-29T00:05:27;1.80;;;1.40;;
46931;SDS011;32670;51.464;11.964;2022-07-29T00:07:53;2.13;;;1.43;;
46931;SDS011;32670;51.464;11.964;2022-07-29T00:10:19;1.80;;;1.30;;
46931;SDS011;32670;51.464;11.964;2022-07-29T00:12:44;3.13;;;1.20;;
46931;SDS011;32670;51.464;11.964;2022-07-29T00:15:10;2.80;;;1.20;;
46931;SDS011;32670;51.464;11.964;2022-07-29T00:17:35;1.40;;;1.17;;
46931;SDS011;32670;51.464;11.964;2022-07-29T00:20:01;2.57;;;1.33;;
46931;SDS011;32670;51.464;11.964;2022-07-29T00:22:27;2.33;;;1.40;;
46931;SDS011;32670;51.464;11.964;2022-07-29T00:24:52;2.63;;;1.10;;
46931;SDS011;32670;51.464;11.964;2022-07-29T00:27:18;2.47;;;1.40;;
46931;SDS011;32670;51.464;11.964;2022-07-29T00:29:43;2.20;;;1.30;;
46931;SDS011;32670;51.464;11.964;2022-07-29T00:32:09;2.83;;;1.60;;
46931;SDS011;32670;51.464;11.964;2022-07-29T00:34:34;1.87;;;1.30;;
46931;SDS011;32670;51.464;11.964;2022-07-29T00:37:18;2.20;;;1.33;;
46931;SDS011;32670;51.464;11.964;2022-07-29T00:39:44;2.20;;;1.07;;
46931;SDS011;32670;51.464;11.964;2022-07-29T00:42:09;2.53;;;1.13;;
46931;SDS011;32670;51.464;11.964;2022-07-29T00:44:41;2.80;;;1.07;;
46931;SDS011;32670;51.464;11.964;2022-07-29T00:47:07;2.63;;;1.30;;
46931;SDS011;32670;51.464;11.964;2022-07-29T00:49:34;2.77;;;1.10;;
46931;SDS011;32670;51.464;11.964;2022-07-29T00:52:03;2.20;;;1.27;;
46931;SDS011;32670;51.464;11.964;2022-07-29T00:54:32;3.10;;;1.40;;
46931;SDS011;32670;51.464;11.964;2022-07-29T00:56:58;2.37;;;1.10;;
46931;SDS011;32670;51.464;11.964;2022-07-29T00:59:24;1.60;;;1.23;;
46931;SDS011;32670;51.464;11.964;2022-07-29T01:01:51;2.17;;;1.20;;
46931;SDS011;32670;51.464;11.964;2022-07-29T01:04:17;3.97;;;1.43;;
46931;SDS011;32670;51.464;11.964;2022-07-29T01:06:42;2.30;;;1.10;;
46931;SDS011;32670;51.464;11.964;2022-07-29T01:09:09;4.03;;;1.40;;
46931;SDS011;32670;51.464;11.964;2022-07-29T01:11:35;1.67;;;1.20;;
46931;SDS011;32670;51.464;11.964;2022-07-29T01:14:01;3.33;;;1.40;;
46931;SDS011;32670;51.464;11.964;2022-07-29T01:16:30;2.20;;;1.20;;
46931;SDS011;32670;51.464;11.964;2022-07-29T01:19:00;4.27;;;1.20;;
46931;SDS011;32670;51.464;11.964;2022-07-29T01:21:53;4.37;;;1.30;;
46931;SDS011;32670;51.464;11.964;2022-07-29T01:27:34;1.63;;;1.17;;
46931;SDS011;32670;51.464;11.964;2022-07-29T01:30:11;2.03;;;1.43;;
46931;SDS011;32670;51.464;11.964;2022-07-29T01:32:37;2.63;;;1.50;;
46931;SDS011;32670;51.464;11.964;2022-07-29T01:35:25;2.30;;;1.40;;
46931;SDS011;32670;51.464;11.964;2022-07-29T01:38:10;4.13;;;1.40;;
46931;SDS011;32670;51.464;11.964;2022-07-29T01:40:45;1.93;;;1.40;;
46931;SDS011;32670;51.464;11.964;2022-07-29T01:43:14;3.23;;;1.20;;
46931;SDS011;32670;51.464;11.964;2022-07-29T01:45:45;2.10;;;1.20;;
46931;SDS011;32670;51.464;11.964;2022-07-29T01:48:21;2.97;;;1.40;;
46931;SDS011;32670;51.464;11.964;2022-07-29T01:50:50;3.93;;;1.50;;
46931;SDS011;32670;51.464;11.964;2022-07-29T01:53:25;3.20;;;1.43;;
46931;SDS011;32670;51.464;11.964;2022-07-29T01:55:58;4.90;;;1.60;;
46931;SDS011;32670;51.464;11.964;2022-07-29T01:58:27;1.53;;;1.30;;
46931;SDS011;32670;51.464;11.964;2022-07-29T02:00:54;2.17;;;1.40;;
46931;SDS011;32670;51.464;11.964;2022-07-29T02:03:22;3.13;;;1.50;;
46931;SDS011;32670;51.464;11.964;2022-07-29T02:05:48;1.70;;;1.20;;
46931;SDS011;32670;51.464;11.964;2022-07-29T02:08:16;1.70;;;1.33;;
46931;SDS011;32670;51.464;11.964;2022-07-29T02:10:44;4.63;;;1.40;;
46931;SDS011;32670;51.464;11.964;2022-07-29T02:13:11;2.50;;;1.30;;
46931;SDS011;32670;51.464;11.964;2022-07-29T02:15:38;2.03;;;1.40;;
46931;SDS011;32670;51.464;11.964;2022-07-29T02:18:10;2.70;;;1.40;;
46931;SDS011;32670;51.464;11.964;2022-07-29T02:20:43;1.77;;;1.40;;
46931;SDS011;32670;51.464;11.964;2022-07-29T02:23:11;5.37;;;1.93;;
46931;SDS011;32670;51.464;11.964;2022-07-29T02:25:40;2.07;;;1.40;;
46931;SDS011;32670;51.464;11.964;2022-07-29T02:28:06;2.50;;;1.50;;
46931;SDS011;32670;51.464;11.964;2022-07-29T02:30:32;4.50;;;1.70;;
46931;SDS011;32670;51.464;11.964;2022-07-29T02:33:01;1.60;;;1.30;;
46931;SDS011;32670;51.464;11.964;2022-07-29T02:35:28;2.07;;;1.50;;
46931;SDS011;32670;51.464;11.964;2022-07-29T02:37:54;2.87;;;1.57;;
46931;SDS011;32670;51.464;11.964;2022-07-29T02:40:39;2.73;;;1.33;;
46931;SDS011;32670;51.464;11.964;2022-07-29T02:43:08;2.57;;;1.37;;
46931;SDS011;32670;51.464;11.964;2022-07-29T02:45:34;2.63;;;1.67;;
46931;SDS011;32670;51.464;11.964;2022-07-29T02:48:00;3.23;;;1.67;;
46931;SDS011;32670;51.464;11.964;2022-07-29T02:50:34;3.67;;;1.40;;
46931;SDS011;32670;51.464;11.964;2022-07-29T02:53:07;1.50;;;1.40;;
46931;SDS011;32670;51.464;11.964;2022-07-29T02:58:15;1.73;;;1.47;;
46931;SDS011;32670;51.464;11.964;2022-07-29T03:00:53;1.83;;;1.43;;
46931;SDS011;32670;51.464;11.964;2022-07-29T03:03:21;4.80;;;1.80;;
46931;SDS011;32670;51.464;11.964;2022-07-29T03:05:51;2.73;;;1.50;;
46931;SDS011;32670;51.464;11.964;2022-07-29T03:08:19;2.07;;;1.43;;
46931;SDS011;32670;51.464;11.964;2022-07-29T03:10:46;3.07;;;1.50;;
46931;SDS011;32670;51.464;11.964;2022-07-29T03:13:12;4.43;;;1.57;;
46931;SDS011;32670;51.464;11.964;2022-07-29T03:15:39;2.47;;;1.50;;
46931;SDS011;32670;51.464;11.964;2022-07-29T03:18:07;3.53;;;1.30;;
46931;SDS011;32670;51.464;11.964;2022-07-29T03:20:33;3.03;;;1.50;;
46931;SDS011;32670;51.464;11.964;2022-07-29T03:22:58;3.20;;;1.40;;
46931;SDS011;32670;51.464;11.964;2022-07-29T03:25:24;2.47;;;1.67;;
46931;SDS011;32670;51.464;11.964;2022-07-29T03:27:49;2.33;;;1.60;;
46931;SDS011;32670;51.464;11.964;2022-07-29T03:30:15;3.90;;;1.63;;
46931;SDS011;32670;51.464;11.964;2022-07-29T03:32:41;1.83;;;1.57;;
46931;SDS011;32670;51.464;11.964;2022-07-29T03:35:07;3.17;;;1.43;;
46931;SDS011;32670;51.464;11.964;2022-07-29T03:37:32;3.43;;;1.80;;
46931;SDS011;32670;51.464;11.964;2022-07-29T03:39:58;3.87;;;1.30;;
46931;SDS011;32670;51.464;11.964;2022-07-29T03:42:32;2.23;;;1.33;;
46931;SDS011;32670;51.464;11.964;2022-07-29T03:45:05;3.57;;;1.50;;
46931;SDS011;32670;51.464;11.964;2022-07-29T03:47:32;2.40;;;1.50;;
46931;SDS011;32670;51.464;11.964;2022-07-29T03:50:02;3.07;;;2.07;;
46931;SDS011;32670;51.464;11.964;2022-07-29T03:52:31;3.90;;;1.47;;
46931;SDS011;32670;51.464;11.964;2022-07-29T03:54:57;4.10;;;1.63;;
46931;SDS011;32670;51.464;11.964;2022-07-29T03:57:27;2.43;;;1.23;;
46931;SDS011;32670;51.464;11.964;2022-07-29T03:59:55;3.73;;;1.50;;
46931;SDS011;32670;51.464;11.964;2022-07-29T04:02:21;2.27;;;1.40;;
46931;SDS011;32670;51.464;11.964;2022-07-29T04:04:47;2.23;;;1.40;;
46931;SDS011;32670;51.464;11.964;2022-07-29T04:07:13;3.20;;;1.60;;
46931;SDS011;32670;51.464;11.964;2022-07-29T04:09:39;2.67;;;1.30;;
46931;SDS011;32670;51.464;11.964;2022-07-29T04:12:05;2.53;;;1.40;;
46931;SDS011;32670;51.464;11.964;2022-07-29T04:14:31;3.00;;;1.40;;
46931;SDS011;32670;51.464;11.964;2022-07-29T04:16:58;2.97;;;1.67;;
46931;SDS011;32670;51.464;11.964;2022-07-29T04:19:24;2.33;;;1.33;;
46931;SDS011;32670;51.464;11.964;2022-07-29T04:21:50;1.80;;;1.50;;
46931;SDS011;32670;51.464;11.964;2022-07-29T04:24:16;2.30;;;1.30;;
46931;SDS011;32670;51.464;11.964;2022-07-29T04:26:41;1.97;;;1.27;;
46931;SDS011;32670;51.464;11.964;2022-07-29T04:29:07;3.20;;;1.50;;
46931;SDS011;32670;51.464;11.964;2022-07-29T04:31:32;2.60;;;1.40;;
46931;SDS011;32670;51.464;11.964;2022-07-29T04:33:58;3.70;;;1.33;;
46931;SDS011;32670;51.464;11.964;2022-07-29T04:36:23;2.83;;;1.40;;
46931;SDS011;32670;51.464;11.964;2022-07-29T04:38:49;5.33;;;1.83;;
46931;SDS011;32670;51.464;11.964;2022-07-29T04:41:14;5.30;;;1.70;;
46931;SDS011;32670;51.464;11.964;2022-07-29T04:43:40;2.87;;;1.50;;
46931;SDS011;32670;51.464;11.964;2022-07-29T04:46:06;3.63;;;1.90;;
46931;SDS011;32670;51.464;11.964;2022-07-29T04:48:32;6.13;;;1.57;;
46931;SDS011;32670;51.464;11.964;2022-07-29T04:50:57;3.30;;;1.77;;
46931;SDS011;32670;51.464;11.964;2022-07-29T04:53:23;2.73;;;1.70;;
46931;SDS011;32670;51.464;11.964;2022-07-29T04:55:48;4.53;;;1.60;;
46931;SDS011;32670;51.464;11.964;2022-07-29T04:58:14;3.47;;;1.50;;
46931;SDS011;32670;51.464;11.964;2022-07-29T05:00:39;3.07;;;1.63;;
46931;SDS011;32670;51.464;11.964;2022-07-29T05:03:05;6.30;;;1.60;;
46931;SDS011;32670;51.464;11.964;2022-07-29T05:05:31;1.90;;;1.30;;
46931;SDS011;32670;51.464;11.964;2022-07-29T05:07:56;3.80;;;1.60;;
46931;SDS011;32670;51.464;11.964;2022-07-29T05:10:22;3.23;;;1.53;;
46931;SDS011;32670;51.464;11.964;2022-07-29T05:12:48;3.07;;;1.50;;
46931;SDS011;32670;51.464;11.964;2022-07-29T05:15:13;4.20;;;1.40;;
46931;SDS011;32670;51.464;11.964;2022-07-29T05:17:39;2.57;;;1.73;;
46931;SDS011;32670;51.464;11.964;2022-07-29T05:20:05;2.50;;;1.70;;
46931;SDS011;32670;51.464;11.964;2022-07-29T05:22:31;2.60;;;1.90;;
46931;SDS011;32670;51.464;11.964;2022-07-29T05:24:56;3.90;;;1.80;;
46931;SDS011;32670;51.464;11.964;2022-07-29T05:27:21;5.43;;;2.00;;
46931;SDS011;32670;51.464;11.964;2022-07-29T05:29:47;3.07;;;2.10;;
46931;SDS011;32670;51.464;11.964;2022-07-29T05:32:12;1.73;;;1.60;;
46931;SDS011;32670;51.464;11.964;2022-07-29T05:34:38;3.67;;;2.00;;
46931;SDS011;32670;51.464;11.964;2022-07-29T05:37:04;3.77;;;2.00;;
46931;SDS011;32670;51.464;11.964;2022-07-29T05:39:30;4.63;;;1.93;;
46931;SDS011;32670;51.464;11.964;2022-07-29T05:41:55;3.43;;;1.70;;
46931;SDS011;32670;51.464;11.964;2022-07-29T05:44:21;4.73;;;2.13;;
46931;SDS011;32670;51.464;11.964;2022-07-29T05:46:46;6.20;;;1.97;;
46931;SDS011;32670;51.464;11.964;2022-07-29T05:49:12;7.60;;;1.80;;
46931;SDS011;32670;51.464;11.964;2022-07-29T05:51:37;22.67;;;6.83;;
46931;SDS011;32670;51.464;11.964;2022-07-29T05:54:03;20.87;;;6.63;;
46931;SDS011;32670;51.464;11.964;2022-07-29T05:56:28;21.80;;;6.40;;
46931;SDS011;32670;51.464;11.964;2022-07-29T05:58:54;19.50;;;6.67;;
46931;SDS011;32670;51.464;11.964;2022-07-29T06:01:19;24.73;;;7.53;;
46931;SDS011;32670;51.464;11.964;2022-07-29T06:03:44;19.80;;;6.67;;
46931;SDS011;32670;51.464;11.964;2022-07-29T06:06:10;19.10;;;6.83;;
46931;SDS011;32670;51.464;11.964;2022-07-29T06:08:37;19.40;;;7.27;;
46931;SDS011;32670;51.464;11.964;2022-07-29T06:11:03;21.40;;;7.13;;
46931;SDS011;32670;51.464;11.964;2022-07-29T06:13:29;20.93;;;6.70;;
46931;SDS011;32670;51.464;11.964;2022-07-29T06:15:55;21.07;;;7.03;;
46931;SDS011;32670;51.464;11.964;2022-07-29T06:18:21;22.60;;;6.53;;
46931;SDS011;32670;51.464;11.964;2022-07-29T06:20:48;19.53;;;6.53;;
46931;SDS011;32670;51.464;11.964;2022-07-29T06:23:14;19.37;;;6.30;;
46931;SDS011;32670;51.464;11.964;2022-07-29T06:25:40;14.93;;;6.37;;
46931;SDS011;32670;51.464;11.964;2022-07-29T06:28:06;19.87;;;7.13;;
46931;SDS011;32670;51.464;11.964;2022-07-29T06:30:31;18.10;;;6.93;;
46931;SDS011;32670;51.464;11.964;2022-07-29T06:32:57;16.97;;;6.93;;
46931;SDS011;32670;51.464;11.964;2022-07-29T06:35:22;16.30;;;7.10;;
46931;SDS011;32670;51.464;11.964;2022-07-29T06:37:48;14.23;;;7.03;;
46931;SDS011;32670;51.464;11.964;2022-07-29T06:40:13;22.73;;;7.27;;
46931;SDS011;32670;51.464;11.964;2022-07-29T06:42:57;19.20;;;7.70;;
46931;SDS011;32670;51.464;11.964;2022-07-29T06:45:23;18.50;;;7.70;;
46931;SDS011;32670;51.464;11.964;2022-07-29T06:47:49;20.00;;;8.33;;
46931;SDS011;32670;51.464;11.964;2022-07-29T06:50:14;15.80;;;8.20;;
46931;SDS011;32670;51.464;11.964;2022-07-29T06:52:40;21.17;;;9.10;;
46931;SDS011;32670;51.464;11.964;2022-07-29T06:55:05;18.37;;;8.10;;
46931;SDS011;32670;51.464;11.964;2022-07-29T06:57:31;16.03;;;8.27;;
46931;SDS011;32670;51.464;11.964;2022-07-29T06:59:57;14.83;;;8.70;;
46931;SDS011;32670;51.464;11.964;2022-07-29T07:02:22;15.73;;;8.17;;
46931;SDS011;32670;51.464;11.964;2022-07-29T07:04:48;16.27;;;9.00;;
46931;SDS011;32670;51.464;11.964;2022-07-29T07:07:13;15.20;;;9.40;;
46931;SDS011;32670;51.464;11.964;2022-07-29T07:09:39;14.63;;;9.27;;
46931;SDS011;32670;51.464;11.964;2022-07-29T07:12:05;16.17;;;9.20;;
46931;SDS011;32670;51.464;11.964;2022-07-29T07:14:31;16.83;;;10.03;;
46931;SDS011;32670;51.464;11.964;2022-07-29T07:16:56;17.93;;;10.17;;
46931;SDS011;32670;51.464;11.964;2022-07-29T07:19:22;14.63;;;10.07;;
46931;SDS011;32670;51.464;11.964;2022-07-29T07:21:47;15.70;;;10.17;;
46931;SDS011;32670;51.464;11.964;2022-07-29T07:24:13;20.70;;;15.30;;
46931;SDS011;32670;51.464;11.964;2022-07-29T07:26:38;15.70;;;11.93;;
46931;SDS011;32670;51.464;11.964;2022-07-29T07:29:04;15.53;;;11.23;;
46931;SDS011;32670;51.464;11.964;2022-07-29T07:31:30;18.77;;;12.40;;
46931;SDS011;32670;51.464;11.964;2022-07-29T07:33:56;17.40;;;11.53;;
46931;SDS011;32670;51.464;11.964;2022-07-29T07:36:21;15.30;;;10.80;;
46931;SDS011;32670;51.464;11.964;2022-07-29T07:38:48;13.67;;;9.90;;
46931;SDS011;32670;51.464;11.964;2022-07-29T07:41:13;14.27;;;10.67;;
46931;SDS011;32670;51.464;11.964;2022-07-29T07:43:39;16.03;;;10.33;;
46931;SDS011;32670;51.464;11.964;2022-07-29T07:46:04;14.80;;;10.47;;
46931;SDS011;32670;51.464;11.964;2022-07-29T07:48:30;14.00;;;9.20;;
46931;SDS011;32670;51.464;11.964;2022-07-29T07:50:55;15.03;;;11.87;;
46931;SDS011;32670;51.464;11.964;2022-07-29T07:53:21;15.33;;;10.57;;
46931;SDS011;32670;51.464;11.964;2022-07-29T07:55:47;13.23;;;10.53;;
46931;SDS011;32670;51.464;11.964;2022-07-29T07:58:12;12.87;;;9.00;;
46931;SDS011;32670;51.464;11.964;2022-07-29T08:00:38;13.03;;;9.50;;
46931;SDS011;32670;51.464;11.964;2022-07-29T08:03:03;14.63;;;9.10;;
46931;SDS011;32670;51.464;11.964;2022-07-29T08:05:29;11.03;;;9.27;;
46931;SDS011;32670;51.464;11.964;2022-07-29T08:07:54;11.47;;;8.80;;
46931;SDS011;32670;51.464;11.964;2022-07-29T08:10:20;11.53;;;9.83;;
46931;SDS011;32670;51.464;11.964;2022-07-29T08:13:08;12.30;;;9.47;;
46931;SDS011;32670;51.464;11.964;2022-07-29T08:15:35;12.43;;;10.50;;
46931;SDS011;32670;51.464;11.964;2022-07-29T08:18:01;11.87;;;9.53;;
46931;SDS011;32670;51.464;11.964;2022-07-29T08:20:27;14.30;;;10.33;;
46931;SDS011;32670;51.464;11.964;2022-07-29T08:22:52;12.73;;;10.63;;
46931;SDS011;32670;51.464;11.964;2022-07-29T08:25:18;16.07;;;12.10;;
46931;SDS011;32670;51.464;11.964;2022-07-29T08:27:48;16.17;;;12.27;;
46931;SDS011;32670;51.464;11.964;2022-07-29T08:30:14;16.27;;;11.87;;
46931;SDS011;32670;51.464;11.964;2022-07-29T08:32:39;16.10;;;11.80;;
46931;SDS011;32670;51.464;11.964;2022-07-29T08:35:05;13.47;;;12.07;;
46931;SDS011;32670;51.464;11.964;2022-07-29T08:37:31;15.83;;;13.97;;
46931;SDS011;32670;51.464;11.964;2022-07-29T08:39:56;17.43;;;13.43;;
46931;SDS011;32670;51.464;11.964;2022-07-29T08:42:21;16.13;;;14.03;;
46931;SDS011;32670;51.464;11.964;2022-07-29T08:44:47;17.93;;;16.03;;
46931;SDS011;32670;51.464;11.964;2022-07-29T08:47:14;19.70;;;16.67;;
46931;SDS011;32670;51.464;11.964;2022-07-29T08:49:39;18.97;;;16.97;;
46931;SDS011;32670;51.464;11.964;2022-07-29T08:52:05;18.87;;;15.87;;
46931;SDS011;32670;51.464;11.964;2022-07-29T08:54:31;19.37;;;17.27;;
46931;SDS011;32670;51.464;11.964;2022-07-29T08:56:57;26.73;;;23.83;;
46931;SDS011;32670;51.464;11.964;2022-07-29T08:59:24;23.93;;;21.47;;
46931;SDS011;32670;51.464;11.964;2022-07-29T09:01:53;23.73;;;20.50;;
46931;SDS011;32670;51.464;11.964;2022-07-29T09:04:19;30.13;;;27.17;;
46931;SDS011;32670;51.464;11.964;2022-07-29T09:06:49;23.43;;;20.97;;
46931;SDS011;32670;51.464;11.964;2022-07-29T09:09:19;20.10;;;18.00;;
46931;SDS011;32670;51.464;11.964;2022-07-29T09:11:45;22.20;;;19.90;;
46931;SDS011;32670;51.464;11.964;2022-07-29T09:14:11;23.80;;;20.30;;
46931;SDS011;32670;51.464;11.964;2022-07-29T09:16:47;22.53;;;20.27;;
46931;SDS011;32670;51.464;11.964;2022-07-29T09:19:20;25.90;;;23.10;;
46931;SDS011;32670;51.464;11.964;2022-07-29T09:21:51;31.77;;;25.00;;
46931;SDS011;32670;51.464;11.964;2022-07-29T09:24:23;24.40;;;21.83;;
46931;SDS011;32670;51.464;11.964;2022-07-29T09:26:50;25.57;;;22.97;;
46931;SDS011;32670;51.464;11.964;2022-07-29T09:29:20;27.17;;;23.63;;
46931;SDS011;32670;51.464;11.964;2022-07-29T09:31:49;27.97;;;21.77;;
46931;SDS011;32670;51.464;11.964;2022-07-29T09:34:16;28.73;;;24.33;;
46931;SDS011;32670;51.464;11.964;2022-07-29T09:36:47;26.17;;;23.43;;
46931;SDS011;32670;51.464;11.964;2022-07-29T09:39:15;27.30;;;23.67;;
46931;SDS011;32670;51.464;11.964;2022-07-29T09:41:55;26.70;;;23.93;;
46931;SDS011;32670;51.464;11.964;2022-07-29T09:44:22;29.20;;;26.10;;
46931;SDS011;32670;51.464;11.964;2022-07-29T09:46:58;28.27;;;25.37;;
46931;SDS011;32670;51.464;11.964;2022-07-29T09:49:31;28.17;;;25.30;;
46931;SDS011;32670;51.464;11.964;2022-07-29T09:52:03;28.83;;;25.17;;
46931;SDS011;32670;51.464;11.964;2022-07-29T09:54:33;26.80;;;24.03;;
46931;SDS011;32670;51.464;11.964;2022-07-29T09:57:04;31.13;;;27.20;;
46931;SDS011;32670;51.464;11.964;2022-07-29T09:59:31;35.13;;;26.47;;
46931;SDS011;32670;51.464;11.964;2022-07-29T10:01:57;30.33;;;27.20;;
46931;SDS011;32670;51.464;11.964;2022-07-29T10:04:23;30.97;;;27.53;;
46931;SDS011;32670;51.464;11.964;2022-07-29T10:06:58;31.53;;;28.27;;
46931;SDS011;32670;51.464;11.964;2022-07-29T10:09:25;31.17;;;28.10;;
46931;SDS011;32670;51.464;11.964;2022-07-29T10:12:03;31.67;;;28.50;;
46931;SDS011;32670;51.464;11.964;2022-07-29T10:14:33;31.77;;;28.57;;
46931;SDS011;32670;51.464;11.964;2022-07-29T10:16:59;31.60;;;28.27;;
46931;SDS011;32670;51.464;11.964;2022-07-29T10:19:28;34.53;;;31.03;;
46931;SDS011;32670;51.464;11.964;2022-07-29T10:21:56;32.53;;;29.23;;
46931;SDS011;32670;51.464;11.964;2022-07-29T10:24:23;33.83;;;30.43;;
46931;SDS011;32670;51.464;11.964;2022-07-29T10:26:50;33.73;;;30.43;;
46931;SDS011;32670;51.464;11.964;2022-07-29T10:29:17;32.57;;;29.47;;
46931;SDS011;32670;51.464;11.964;2022-07-29T10:31:44;33.27;;;29.97;;
46931;SDS011;32670;51.464;11.964;2022-07-29T10:34:22;33.10;;;29.73;;
46931;SDS011;32670;51.464;11.964;2022-07-29T10:37:06;34.87;;;31.20;;
46931;SDS011;32670;51.464;11.964;2022-07-29T10:39:55;34.80;;;31.30;;
46931;SDS011;32670;51.464;11.964;2022-07-29T10:42:23;35.27;;;31.63;;
46931;SDS011;32670;51.464;11.964;2022-07-29T10:44:50;35.30;;;31.80;;
46931;SDS011;32670;51.464;11.964;2022-07-29T10:47:21;36.67;;;32.77;;
46931;SDS011;32670;51.464;11.964;2022-07-29T10:50:01;35.50;;;31.90;;
46931;SDS011;32670;51.464;11.964;2022-07-29T10:55:30;36.43;;;32.83;;
46931;SDS011;32670;51.464;11.964;2022-07-29T10:58:10;36.43;;;32.73;;
46931;SDS011;32670;51.464;11.964;2022-07-29T11:00:37;37.37;;;33.67;;
46931;SDS011;32670;51.464;11.964;2022-07-29T11:03:02;35.90;;;32.40;;
46931;SDS011;32670;51.464;11.964;2022-07-29T11:05:28;36.87;;;33.37;;
46931;SDS011;32670;51.464;11.964;2022-07-29T11:08:29;36.87;;;33.23;;
46931;SDS011;32670;51.464;11.964;2022-07-29T11:10:49;36.80;;;33.23;;
46931;SDS011;32670;51.464;11.964;2022-07-29T11:16:06;37.83;;;34.03;;
46931;SDS011;32670;51.464;11.964;2022-07-29T11:18:32;38.80;;;35.03;;
46931;SDS011;32670;51.464;11.964;2022-07-29T11:20:58;40.47;;;36.47;;
46931;SDS011;32670;51.464;11.964;2022-07-29T11:23:31;39.20;;;35.30;;
46931;SDS011;32670;51.464;11.964;2022-07-29T11:28:39;37.70;;;34.03;;
46931;SDS011;32670;51.464;11.964;2022-07-29T11:31:19;38.63;;;34.83;;
46931;SDS011;32670;51.464;11.964;2022-07-29T11:34:15;40.30;;;36.13;;
46931;SDS011;32670;51.464;11.964;2022-07-29T11:39:31;38.50;;;34.80;;
46931;SDS011;32670;51.464;11.964;2022-07-29T11:42:36;40.17;;;35.97;;
46931;SDS011;32670;51.464;11.964;2022-07-29T11:47:38;43.00;;;38.80;;
46931;SDS011;32670;51.464;11.964;2022-07-29T11:50:06;44.20;;;39.80;;
46931;SDS011;32670;51.464;11.964;2022-07-29T11:52:44;42.17;;;37.93;;
46931;SDS011;32670;51.464;11.964;2022-07-29T11:55:15;44.13;;;39.80;;
46931;SDS011;32670;51.464;11.964;2022-07-29T11:57:49;44.00;;;39.50;;
46931;SDS011;32670;51.464;11.964;2022-07-29T12:00:21;44.80;;;40.43;;
46931;SDS011;32670;51.464;11.964;2022-07-29T12:02:48;43.30;;;39.17;;
46931;SDS011;32670;51.464;11.964;2022-07-29T12:05:14;43.73;;;39.23;;
46931;SDS011;32670;51.464;11.964;2022-07-29T12:07:40;42.43;;;38.13;;
46931;SDS011;32670;51.464;11.964;2022-07-29T12:10:06;41.63;;;37.63;;
46931;SDS011;32670;51.464;11.964;2022-07-29T12:12:32;40.73;;;36.73;;
46931;SDS011;32670;51.464;11.964;2022-07-29T12:15:09;42.50;;;38.33;;
46931;SDS011;32670;51.464;11.964;2022-07-29T12:17:36;44.60;;;40.20;;
46931;SDS011;32670;51.464;11.964;2022-07-29T12:20:03;47.07;;;42.47;;
46931;SDS011;32670;51.464;11.964;2022-07-29T12:22:30;44.60;;;40.30;;
46931;SDS011;32670;51.464;11.964;2022-07-29T12:25:03;48.50;;;43.87;;
46931;SDS011;32670;51.464;11.964;2022-07-29T12:27:30;47.80;;;43.20;;
46931;SDS011;32670;51.464;11.964;2022-07-29T12:29:59;46.80;;;42.20;;
46931;SDS011;32670;51.464;11.964;2022-07-29T12:35:05;43.03;;;38.80;;
46931;SDS011;32670;51.464;11.964;2022-07-29T12:37:34;44.13;;;39.70;;
46931;SDS011;32670;51.464;11.964;2022-07-29T12:40:02;39.13;;;35.40;;
46931;SDS011;32670;51.464;11.964;2022-07-29T12:42:28;41.33;;;37.23;;
46931;SDS011;32670;51.464;11.964;2022-07-29T12:44:54;38.03;;;34.23;;
46931;SDS011;32670;51.464;11.964;2022-07-29T12:47:20;39.00;;;35.20;;
46931;SDS011;32670;51.464;11.964;2022-07-29T12:49:46;41.93;;;37.80;;
46931;SDS011;32670;51.464;11.964;2022-07-29T12:54:50;39.17;;;35.07;;
46931;SDS011;32670;51.464;11.964;2022-07-29T12:57:16;40.90;;;36.83;;
46931;SDS011;32670;51.464;11.964;2022-07-29T12:59:41;40.10;;;36.10;;
46931;SDS011;32670;51.464;11.964;2022-07-29T13:02:19;37.90;;;34.13;;
46931;SDS011;32670;51.464;11.964;2022-07-29T13:04:54;37.40;;;33.60;;
46931;SDS011;32670;51.464;11.964;2022-07-29T13:07:39;36.73;;;33.17;;
46931;SDS011;32670;51.464;11.964;2022-07-29T13:12:39;36.63;;;33.03;;
46931;SDS011;32670;51.464;11.964;2022-07-29T13:15:24;37.57;;;33.87;;
46931;SDS011;32670;51.464;11.964;2022-07-29T13:17:50;37.70;;;33.90;;
46931;SDS011;32670;51.464;11.964;2022-07-29T13:20:15;39.17;;;35.13;;
46931;SDS011;32670;51.464;11.964;2022-07-29T13:22:41;38.63;;;34.90;;
46931;SDS011;32670;51.464;11.964;2022-07-29T13:25:07;41.60;;;37.50;;
46931;SDS011;32670;51.464;11.964;2022-07-29T13:27:35;40.60;;;36.77;;
46931;SDS011;32670;51.464;11.964;2022-07-29T13:30:06;41.20;;;37.20;;
46931;SDS011;32670;51.464;11.964;2022-07-29T13:32:33;39.90;;;36.10;;
46931;SDS011;32670;51.464;11.964;2022-07-29T13:35:02;40.77;;;36.70;;
46931;SDS011;32670;51.464;11.964;2022-07-29T13:37:32;41.20;;;37.27;;
46931;SDS011;32670;51.464;11.964;2022-07-29T13:39:58;40.30;;;36.40;;
46931;SDS011;32670;51.464;11.964;2022-07-29T13:42:24;43.90;;;39.50;;
46931;SDS011;32670;51.464;11.964;2022-07-29T13:44:51;38.67;;;34.97;;
46931;SDS011;32670;51.464;11.964;2022-07-29T13:47:18;40.73;;;36.83;;
46931;SDS011;32670;51.464;11.964;2022-07-29T13:49:44;43.73;;;39.33;;
46931;SDS011;32670;51.464;11.964;2022-07-29T13:52:10;40.97;;;37.07;;
46931;SDS011;32670;51.464;11.964;2022-07-29T13:54:35;42.47;;;38.17;;
46931;SDS011;32670;51.464;11.964;2022-07-29T13:57:04;40.17;;;36.33;;
46931;SDS011;32670;51.464;11.964;2022-07-29T13:59:30;41.00;;;36.90;;
46931;SDS011;32670;51.464;11.964;2022-07-29T14:01:55;39.53;;;35.50;;
46931;SDS011;32670;51.464;11.964;2022-07-29T14:04:21;39.47;;;35.60;;
46931;SDS011;32670;51.464;11.964;2022-07-29T14:06:48;39.43;;;35.60;;
46931;SDS011;32670;51.464;11.964;2022-07-29T14:09:13;39.07;;;35.27;;
46931;SDS011;32670;51.464;11.964;2022-07-29T14:11:39;37.43;;;33.60;;
46931;SDS011;32670;51.464;11.964;2022-07-29T14:14:05;37.13;;;33.43;;
46931;SDS011;32670;51.464;11.964;2022-07-29T14:16:30;37.20;;;33.37;;
46931;SDS011;32670;51.464;11.964;2022-07-29T14:18:55;37.03;;;33.43;;
46931;SDS011;32670;51.464;11.964;2022-07-29T14:21:21;39.00;;;35.23;;
46931;SDS011;32670;51.464;11.964;2022-07-29T14:23:46;38.63;;;34.80;;
46931;SDS011;32670;51.464;11.964;2022-07-29T14:26:12;39.90;;;35.93;;
46931;SDS011;32670;51.464;11.964;2022-07-29T14:28:38;40.67;;;36.67;;
46931;SDS011;32670;51.464;11.964;2022-07-29T14:31:03;39.73;;;35.63;;
46931;SDS011;32670;51.464;11.964;2022-07-29T14:33:29;39.13;;;35.13;;
46931;SDS011;32670;51.464;11.964;2022-07-29T14:35:54;39.60;;;35.80;;
46931;SDS011;32670;51.464;11.964;2022-07-29T14:38:20;39.87;;;35.80;;
46931;SDS011;32670;51.464;11.964;2022-07-29T14:40:45;40.43;;;36.47;;
46931;SDS011;32670;51.464;11.964;2022-07-29T14:43:11;38.03;;;34.53;;
46931;SDS011;32670;51.464;11.964;2022-07-29T14:45:38;39.27;;;35.57;;
46931;SDS011;32670;51.464;11.964;2022-07-29T14:48:04;38.63;;;34.83;;
46931;SDS011;32670;51.464;11.964;2022-07-29T14:50:30;39.87;;;36.07;;
46931;SDS011;32670;51.464;11.964;2022-07-29T14:52:55;39.13;;;35.37;;